sensor_id;sensor_type;location;lat;lon;timestamp;temperature;humidity
69189;DHT22;56302;52.322;5.926;2024-01-16T00:01:20;-0.80;99.90
69189;DHT22;56302;52.322;5.926;2024-01-16T00:03:46;-0.80;99.90
69189;DHT22;56302;52.322;5.926;2024-01-16T00:06:11;-0.90;99.90
69189;DHT22;56302;52.322;5.926;2024-01-16T00:08:37;-0.90;99.90
69189;DHT22;56302;52.322;5.926;2024-01-16T00:11:03;-0.90;99.90
69189;DHT22;56302;52.322;5.926;2024-01-16T00:13:29;-1.00;99.90
69189;DHT22;56302;52.322;5.926;2024-01-16T00:15:55;-1.00;99.90
69189;DHT22;56302;52.322;5.926;2024-01-16T00:18:22;-1.10;99.90
69189;DHT22;56302;52.322;5.926;2024-01-16T00:20:48;-1.00;99.90
69189;DHT22;56302;52.322;5.926;2024-01-16T00:23:13;-1.00;99.90
69189;DHT22;56302;52.322;5.926;2024-01-16T00:25:39;-1.10;99.90
69189;DHT22;56302;52.322;5.926;2024-01-16T00:28:05;-1.10;99.90
69189;DHT22;56302;52.322;5.926;2024-01-16T00:30:31;-1.10;99.90
69189;DHT22;56302;52.322;5.926;2024-01-16T00:32:56;-1.00;99.90
69189;DHT22;56302;52.322;5.926;2024-01-16T00:35:22;-1.10;99.90
69189;DHT22;56302;52.322;5.926;2024-01-16T00:37:47;-1.00;99.90
69189;DHT22;56302;52.322;5.926;2024-01-16T00:40:13;-1.00;99.90
69189;DHT22;56302;52.322;5.926;2024-01-16T00:42:39;-1.00;99.90
69189;DHT22;56302;52.322;5.926;2024-01-16T00:45:04;-1.00;99.90
69189;DHT22;56302;52.322;5.926;2024-01-16T00:47:30;-0.90;99.90
69189;DHT22;56302;52.322;5.926;2024-01-16T00:49:56;-0.90;99.90
69189;DHT22;56302;52.322;5.926;2024-01-16T00:52:21;-0.90;99.90
69189;DHT22;56302;52.322;5.926;2024-01-16T00:54:47;-0.90;99.90
69189;DHT22;56302;52.322;5.926;2024-01-16T00:57:13;-0.90;99.90
69189;DHT22;56302;52.322;5.926;2024-01-16T00:59:40;-0.90;99.90
69189;DHT22;56302;52.322;5.926;2024-01-16T01:02:06;-0.90;99.90
69189;DHT22;56302;52.322;5.926;2024-01-16T01:04:33;-0.90;99.90
69189;DHT22;56302;52.322;5.926;2024-01-16T01:06:59;-0.90;99.90
69189;DHT22;56302;52.322;5.926;2024-01-16T01:09:24;-0.90;99.90
69189;DHT22;56302;52.322;5.926;2024-01-16T01:11:50;-0.90;99.90
69189;DHT22;56302;52.322;5.926;2024-01-16T01:14:16;-0.90;99.90
69189;DHT22;56302;52.322;5.926;2024-01-16T01:16:41;-0.90;99.90
69189;DHT22;56302;52.322;5.926;2024-01-16T01:19:07;-1.00;99.90
69189;DHT22;56302;52.322;5.926;2024-01-16T01:21:32;-1.00;99.90
69189;DHT22;56302;52.322;5.926;2024-01-16T01:23:58;-1.00;99.90
69189;DHT22;56302;52.322;5.926;2024-01-16T01:26:23;-1.00;99.90
69189;DHT22;56302;52.322;5.926;2024-01-16T01:28:49;-1.00;99.90
69189;DHT22;56302;52.322;5.926;2024-01-16T01:31:15;-1.10;99.90
69189;DHT22;56302;52.322;5.926;2024-01-16T01:33:40;-1.10;99.90
69189;DHT22;56302;52.322;5.926;2024-01-16T01:36:06;-1.10;99.90
69189;DHT22;56302;52.322;5.926;2024-01-16T01:38:32;-1.10;99.90
69189;DHT22;56302;52.322;5.926;2024-01-16T01:40:57;-1.10;99.90
69189;DHT22;56302;52.322;5.926;2024-01-16T01:43:24;-1.10;99.90
69189;DHT22;56302;52.322;5.926;2024-01-16T01:48:40;-1.10;99.90
69189;DHT22;56302;52.322;5.926;2024-01-16T01:51:07;-1.10;99.90
69189;DHT22;56302;52.322;5.926;2024-01-16T01:53:33;-1.10;99.90
69189;DHT22;56302;52.322;5.926;2024-01-16T01:56:04;-1.10;99.90
69189;DHT22;56302;52.322;5.926;2024-01-16T01:58:32;-1.10;99.90
69189;DHT22;56302;52.322;5.926;2024-01-16T02:00:58;-1.10;99.90
69189;DHT22;56302;52.322;5.926;2024-01-16T02:03:26;-1.10;99.90
69189;DHT22;56302;52.322;5.926;2024-01-16T02:05:52;-1.10;99.90
69189;DHT22;56302;52.322;5.926;2024-01-16T02:08:18;-1.10;99.90
69189;DHT22;56302;52.322;5.926;2024-01-16T02:10:45;-1.10;99.90
69189;DHT22;56302;52.322;5.926;2024-01-16T02:13:13;-1.10;99.90
69189;DHT22;56302;52.322;5.926;2024-01-16T02:15:38;-1.10;99.90
69189;DHT22;56302;52.322;5.926;2024-01-16T02:18:07;-1.10;99.90
69189;DHT22;56302;52.322;5.926;2024-01-16T02:20:32;-1.10;99.90
69189;DHT22;56302;52.322;5.926;2024-01-16T02:23:00;-1.10;99.90
69189;DHT22;56302;52.322;5.926;2024-01-16T02:25:28;-1.10;99.90
69189;DHT22;56302;52.322;5.926;2024-01-16T02:27:54;-1.20;99.90
69189;DHT22;56302;52.322;5.926;2024-01-16T02:30:19;-1.20;99.90
69189;DHT22;56302;52.322;5.926;2024-01-16T02:32:45;-1.20;99.90
69189;DHT22;56302;52.322;5.926;2024-01-16T02:35:11;-1.20;99.90
69189;DHT22;56302;52.322;5.926;2024-01-16T02:37:36;-1.20;99.90
69189;DHT22;56302;52.322;5.926;2024-01-16T02:40:02;-1.20;99.90
69189;DHT22;56302;52.322;5.926;2024-01-16T02:42:34;-1.20;99.90
69189;DHT22;56302;52.322;5.926;2024-01-16T02:44:59;-1.20;99.90
69189;DHT22;56302;52.322;5.926;2024-01-16T02:47:25;-1.20;99.90
69189;DHT22;56302;52.322;5.926;2024-01-16T02:49:51;-1.20;99.90
69189;DHT22;56302;52.322;5.926;2024-01-16T02:52:16;-1.30;99.90
69189;DHT22;56302;52.322;5.926;2024-01-16T02:54:42;-1.20;99.90
69189;DHT22;56302;52.322;5.926;2024-01-16T02:57:07;-1.20;99.90
69189;DHT22;56302;52.322;5.926;2024-01-16T02:59:33;-1.20;99.90
69189;DHT22;56302;52.322;5.926;2024-01-16T03:01:58;-1.20;99.90
69189;DHT22;56302;52.322;5.926;2024-01-16T03:04:24;-1.20;99.90
69189;DHT22;56302;52.322;5.926;2024-01-16T03:06:50;-1.30;99.90
69189;DHT22;56302;52.322;5.926;2024-01-16T03:09:15;-1.30;99.90
69189;DHT22;56302;52.322;5.926;2024-01-16T03:11:41;-1.20;99.90
69189;DHT22;56302;52.322;5.926;2024-01-16T03:14:07;-1.20;99.90
69189;DHT22;56302;52.322;5.926;2024-01-16T03:16:32;-1.20;99.90
69189;DHT22;56302;52.322;5.926;2024-01-16T03:18:58;-1.30;99.90
69189;DHT22;56302;52.322;5.926;2024-01-16T03:21:23;-1.20;99.90
69189;DHT22;56302;52.322;5.926;2024-01-16T03:23:49;-1.20;99.90
69189;DHT22;56302;52.322;5.926;2024-01-16T03:26:15;-1.20;99.90
69189;DHT22;56302;52.322;5.926;2024-01-16T03:28:41;-1.20;99.90
69189;DHT22;56302;52.322;5.926;2024-01-16T03:31:07;-1.20;99.90
69189;DHT22;56302;52.322;5.926;2024-01-16T03:33:33;-1.20;99.90
69189;DHT22;56302;52.322;5.926;2024-01-16T03:36:00;-1.30;99.90
69189;DHT22;56302;52.322;5.926;2024-01-16T03:38:26;-1.20;99.90
69189;DHT22;56302;52.322;5.926;2024-01-16T03:40:51;-1.20;99.90
69189;DHT22;56302;52.322;5.926;2024-01-16T03:43:17;-1.20;99.90
69189;DHT22;56302;52.322;5.926;2024-01-16T03:45:44;-1.10;99.90
69189;DHT22;56302;52.322;5.926;2024-01-16T03:48:09;-1.10;99.90
69189;DHT22;56302;52.322;5.926;2024-01-16T03:50:35;-1.10;99.90
69189;DHT22;56302;52.322;5.926;2024-01-16T03:53:02;-1.10;99.90
69189;DHT22;56302;52.322;5.926;2024-01-16T03:55:29;-1.10;99.90
69189;DHT22;56302;52.322;5.926;2024-01-16T03:57:55;-1.10;99.90
69189;DHT22;56302;52.322;5.926;2024-01-16T04:00:21;-1.10;99.90
69189;DHT22;56302;52.322;5.926;2024-01-16T04:02:46;-1.10;99.90
69189;DHT22;56302;52.322;5.926;2024-01-16T04:05:12;-1.10;99.90
69189;DHT22;56302;52.322;5.926;2024-01-16T04:07:38;-1.10;99.90
69189;DHT22;56302;52.322;5.926;2024-01-16T04:10:04;-1.10;99.90
69189;DHT22;56302;52.322;5.926;2024-01-16T04:12:31;-1.10;99.90
69189;DHT22;56302;52.322;5.926;2024-01-16T04:14:57;-1.10;99.90
69189;DHT22;56302;52.322;5.926;2024-01-16T04:17:22;-1.00;99.90
69189;DHT22;56302;52.322;5.926;2024-01-16T04:19:48;-1.10;99.90
69189;DHT22;56302;52.322;5.926;2024-01-16T04:22:13;-1.10;99.90
69189;DHT22;56302;52.322;5.926;2024-01-16T04:24:39;-1.10;99.90
69189;DHT22;56302;52.322;5.926;2024-01-16T04:27:04;-1.10;99.90
69189;DHT22;56302;52.322;5.926;2024-01-16T04:29:30;-1.00;99.90
69189;DHT22;56302;52.322;5.926;2024-01-16T04:31:56;-1.00;99.90
69189;DHT22;56302;52.322;5.926;2024-01-16T04:34:22;-1.00;99.90
69189;DHT22;56302;52.322;5.926;2024-01-16T04:36:48;-1.10;99.90
69189;DHT22;56302;52.322;5.926;2024-01-16T04:39:13;-1.10;99.90
69189;DHT22;56302;52.322;5.926;2024-01-16T04:41:39;-1.10;99.90
69189;DHT22;56302;52.322;5.926;2024-01-16T04:44:04;-1.10;99.90
69189;DHT22;56302;52.322;5.926;2024-01-16T04:46:30;-1.10;99.90
69189;DHT22;56302;52.322;5.926;2024-01-16T04:48:56;-1.10;99.90
69189;DHT22;56302;52.322;5.926;2024-01-16T04:51:21;-1.10;99.90
69189;DHT22;56302;52.322;5.926;2024-01-16T04:53:47;-1.20;99.90
69189;DHT22;56302;52.322;5.926;2024-01-16T04:56:12;-1.20;99.90
69189;DHT22;56302;52.322;5.926;2024-01-16T04:58:38;-1.10;99.90
69189;DHT22;56302;52.322;5.926;2024-01-16T05:01:04;-1.20;99.90
69189;DHT22;56302;52.322;5.926;2024-01-16T05:03:29;-1.20;99.90
69189;DHT22;56302;52.322;5.926;2024-01-16T05:05:55;-1.20;99.90
69189;DHT22;56302;52.322;5.926;2024-01-16T05:08:22;-1.20;99.90
69189;DHT22;56302;52.322;5.926;2024-01-16T05:10:47;-1.20;99.90
69189;DHT22;56302;52.322;5.926;2024-01-16T05:13:13;-1.20;99.90
69189;DHT22;56302;52.322;5.926;2024-01-16T05:15:40;-1.10;99.90
69189;DHT22;56302;52.322;5.926;2024-01-16T05:18:06;-1.10;99.90
69189;DHT22;56302;52.322;5.926;2024-01-16T05:20:31;-1.10;99.90
69189;DHT22;56302;52.322;5.926;2024-01-16T05:22:57;-1.00;99.90
69189;DHT22;56302;52.322;5.926;2024-01-16T05:25:22;-1.00;99.90
69189;DHT22;56302;52.322;5.926;2024-01-16T05:27:48;-0.90;99.90
69189;DHT22;56302;52.322;5.926;2024-01-16T05:30:14;-0.90;99.90
69189;DHT22;56302;52.322;5.926;2024-01-16T05:32:40;-0.90;99.90
69189;DHT22;56302;52.322;5.926;2024-01-16T05:35:07;-0.90;99.90
69189;DHT22;56302;52.322;5.926;2024-01-16T05:37:32;-0.80;99.90
69189;DHT22;56302;52.322;5.926;2024-01-16T05:39:58;-0.80;99.90
69189;DHT22;56302;52.322;5.926;2024-01-16T05:42:24;-0.70;99.90
69189;DHT22;56302;52.322;5.926;2024-01-16T05:44:49;-0.70;99.90
69189;DHT22;56302;52.322;5.926;2024-01-16T05:47:15;-0.70;99.90
69189;DHT22;56302;52.322;5.926;2024-01-16T05:49:41;-0.70;99.90
69189;DHT22;56302;52.322;5.926;2024-01-16T05:52:08;-0.70;99.90
69189;DHT22;56302;52.322;5.926;2024-01-16T05:54:33;-0.70;99.90
69189;DHT22;56302;52.322;5.926;2024-01-16T05:56:59;-0.70;99.90
69189;DHT22;56302;52.322;5.926;2024-01-16T05:59:24;-0.60;99.90
69189;DHT22;56302;52.322;5.926;2024-01-16T06:01:50;-0.60;99.90
69189;DHT22;56302;52.322;5.926;2024-01-16T06:04:16;-0.70;99.90
69189;DHT22;56302;52.322;5.926;2024-01-16T06:06:42;-0.70;99.90
69189;DHT22;56302;52.322;5.926;2024-01-16T06:09:13;-0.70;99.90
69189;DHT22;56302;52.322;5.926;2024-01-16T06:11:40;-0.70;99.90
69189;DHT22;56302;52.322;5.926;2024-01-16T06:14:09;-0.70;99.90
69189;DHT22;56302;52.322;5.926;2024-01-16T06:16:35;-0.70;99.90
69189;DHT22;56302;52.322;5.926;2024-01-16T06:19:01;-0.70;99.90
69189;DHT22;56302;52.322;5.926;2024-01-16T06:21:26;-0.70;99.90
69189;DHT22;56302;52.322;5.926;2024-01-16T06:23:52;-0.70;99.90
69189;DHT22;56302;52.322;5.926;2024-01-16T06:26:18;-0.70;99.90
69189;DHT22;56302;52.322;5.926;2024-01-16T06:28:44;-0.70;99.90
69189;DHT22;56302;52.322;5.926;2024-01-16T06:31:10;-0.70;99.90
69189;DHT22;56302;52.322;5.926;2024-01-16T06:33:35;-0.70;99.90
69189;DHT22;56302;52.322;5.926;2024-01-16T06:36:02;-0.70;99.90
69189;DHT22;56302;52.322;5.926;2024-01-16T06:38:30;-0.70;99.90
69189;DHT22;56302;52.322;5.926;2024-01-16T06:40:56;-0.70;99.90
69189;DHT22;56302;52.322;5.926;2024-01-16T06:43:21;-0.60;99.90
69189;DHT22;56302;52.322;5.926;2024-01-16T06:45:47;-0.70;99.90
69189;DHT22;56302;52.322;5.926;2024-01-16T06:48:13;-0.60;99.90
69189;DHT22;56302;52.322;5.926;2024-01-16T06:50:39;-0.60;99.90
69189;DHT22;56302;52.322;5.926;2024-01-16T06:53:04;-0.60;99.90
69189;DHT22;56302;52.322;5.926;2024-01-16T06:55:30;-0.60;99.90
69189;DHT22;56302;52.322;5.926;2024-01-16T06:57:55;-0.60;99.90
69189;DHT22;56302;52.322;5.926;2024-01-16T07:00:21;-0.50;99.90
69189;DHT22;56302;52.322;5.926;2024-01-16T07:02:48;-0.50;99.90
69189;DHT22;56302;52.322;5.926;2024-01-16T07:05:14;-0.50;99.90
69189;DHT22;56302;52.322;5.926;2024-01-16T07:07:39;-0.50;99.90
69189;DHT22;56302;52.322;5.926;2024-01-16T07:10:06;-0.50;99.90
69189;DHT22;56302;52.322;5.926;2024-01-16T07:12:34;-0.50;99.90
69189;DHT22;56302;52.322;5.926;2024-01-16T07:15:00;-0.50;99.90
69189;DHT22;56302;52.322;5.926;2024-01-16T07:17:25;-0.50;99.90
69189;DHT22;56302;52.322;5.926;2024-01-16T07:19:51;-0.40;99.90
69189;DHT22;56302;52.322;5.926;2024-01-16T07:22:17;-0.40;99.90
69189;DHT22;56302;52.322;5.926;2024-01-16T07:24:42;-0.40;99.90
69189;DHT22;56302;52.322;5.926;2024-01-16T07:27:08;-0.40;99.90
69189;DHT22;56302;52.322;5.926;2024-01-16T07:29:34;-0.40;99.90
69189;DHT22;56302;52.322;5.926;2024-01-16T07:31:59;-0.40;99.90
69189;DHT22;56302;52.322;5.926;2024-01-16T07:34:25;-0.40;99.90
69189;DHT22;56302;52.322;5.926;2024-01-16T07:36:51;-0.40;99.90
69189;DHT22;56302;52.322;5.926;2024-01-16T07:39:16;-0.40;99.90
69189;DHT22;56302;52.322;5.926;2024-01-16T07:41:42;-0.40;99.90
69189;DHT22;56302;52.322;5.926;2024-01-16T07:44:08;-0.40;99.90
69189;DHT22;56302;52.322;5.926;2024-01-16T07:46:34;-0.40;99.90
69189;DHT22;56302;52.322;5.926;2024-01-16T07:48:59;-0.40;99.90
69189;DHT22;56302;52.322;5.926;2024-01-16T07:51:25;-0.40;99.90
69189;DHT22;56302;52.322;5.926;2024-01-16T07:53:58;-0.40;99.90
69189;DHT22;56302;52.322;5.926;2024-01-16T07:56:29;-0.40;99.90
69189;DHT22;56302;52.322;5.926;2024-01-16T07:58:54;-0.40;99.90
69189;DHT22;56302;52.322;5.926;2024-01-16T08:01:20;-0.30;99.90
69189;DHT22;56302;52.322;5.926;2024-01-16T08:03:46;-0.30;99.90
69189;DHT22;56302;52.322;5.926;2024-01-16T08:06:12;-0.30;99.90
69189;DHT22;56302;52.322;5.926;2024-01-16T08:08:37;-0.30;99.90
69189;DHT22;56302;52.322;5.926;2024-01-16T08:11:03;-0.40;99.90
69189;DHT22;56302;52.322;5.926;2024-01-16T08:13:28;-0.40;99.90
69189;DHT22;56302;52.322;5.926;2024-01-16T08:15:54;-0.30;99.90
69189;DHT22;56302;52.322;5.926;2024-01-16T08:18:19;-0.30;99.90
69189;DHT22;56302;52.322;5.926;2024-01-16T08:20:45;-0.30;99.90
69189;DHT22;56302;52.322;5.926;2024-01-16T08:23:11;-0.30;99.90
69189;DHT22;56302;52.322;5.926;2024-01-16T08:25:36;-0.30;99.90
69189;DHT22;56302;52.322;5.926;2024-01-16T08:28:02;-0.30;99.90
69189;DHT22;56302;52.322;5.926;2024-01-16T08:30:27;-0.20;99.90
69189;DHT22;56302;52.322;5.926;2024-01-16T08:32:53;-0.20;99.90
69189;DHT22;56302;52.322;5.926;2024-01-16T08:35:19;-0.20;99.90
69189;DHT22;56302;52.322;5.926;2024-01-16T08:37:44;-0.20;99.90
69189;DHT22;56302;52.322;5.926;2024-01-16T08:40:10;-0.20;99.90
69189;DHT22;56302;52.322;5.926;2024-01-16T08:42:37;-0.20;99.90
69189;DHT22;56302;52.322;5.926;2024-01-16T08:45:03;-0.20;99.90
69189;DHT22;56302;52.322;5.926;2024-01-16T08:47:28;-0.20;99.90
69189;DHT22;56302;52.322;5.926;2024-01-16T08:49:54;-0.20;99.90
69189;DHT22;56302;52.322;5.926;2024-01-16T08:52:19;-0.20;99.90
69189;DHT22;56302;52.322;5.926;2024-01-16T08:54:45;-0.20;99.90
69189;DHT22;56302;52.322;5.926;2024-01-16T08:57:11;-0.20;99.90
69189;DHT22;56302;52.322;5.926;2024-01-16T08:59:39;-0.20;99.90
69189;DHT22;56302;52.322;5.926;2024-01-16T09:02:04;-0.20;99.90
69189;DHT22;56302;52.322;5.926;2024-01-16T09:04:30;-0.20;99.90
69189;DHT22;56302;52.322;5.926;2024-01-16T09:06:55;-0.10;99.90
69189;DHT22;56302;52.322;5.926;2024-01-16T09:09:21;-0.10;99.90
69189;DHT22;56302;52.322;5.926;2024-01-16T09:11:47;-0.10;99.90
69189;DHT22;56302;52.322;5.926;2024-01-16T09:14:12;-0.10;99.90
69189;DHT22;56302;52.322;5.926;2024-01-16T09:16:38;-0.10;99.90
69189;DHT22;56302;52.322;5.926;2024-01-16T09:19:04;-0.10;99.90
69189;DHT22;56302;52.322;5.926;2024-01-16T09:21:30;0.00;99.90
69189;DHT22;56302;52.322;5.926;2024-01-16T09:23:55;0.00;99.90
69189;DHT22;56302;52.322;5.926;2024-01-16T09:26:21;0.00;99.90
69189;DHT22;56302;52.322;5.926;2024-01-16T09:28:46;0.00;99.90
69189;DHT22;56302;52.322;5.926;2024-01-16T09:31:12;0.00;99.90
69189;DHT22;56302;52.322;5.926;2024-01-16T09:33:37;0.00;99.90
69189;DHT22;56302;52.322;5.926;2024-01-16T09:36:04;0.00;99.90
69189;DHT22;56302;52.322;5.926;2024-01-16T09:38:29;0.00;99.90
69189;DHT22;56302;52.322;5.926;2024-01-16T09:40:56;0.00;99.90
69189;DHT22;56302;52.322;5.926;2024-01-16T09:43:28;0.00;99.90
69189;DHT22;56302;52.322;5.926;2024-01-16T09:45:55;0.00;99.90
69189;DHT22;56302;52.322;5.926;2024-01-16T09:48:21;0.00;99.90
69189;DHT22;56302;52.322;5.926;2024-01-16T09:50:47;0.00;99.90
69189;DHT22;56302;52.322;5.926;2024-01-16T09:53:12;0.00;99.90
69189;DHT22;56302;52.322;5.926;2024-01-16T09:55:38;0.00;99.90
69189;DHT22;56302;52.322;5.926;2024-01-16T09:58:05;0.00;99.90
69189;DHT22;56302;52.322;5.926;2024-01-16T10:00:34;0.10;99.90
69189;DHT22;56302;52.322;5.926;2024-01-16T10:03:00;0.00;99.90
69189;DHT22;56302;52.322;5.926;2024-01-16T10:05:26;0.10;99.90
69189;DHT22;56302;52.322;5.926;2024-01-16T10:07:52;0.10;99.90
69189;DHT22;56302;52.322;5.926;2024-01-16T10:10:18;0.10;99.90
69189;DHT22;56302;52.322;5.926;2024-01-16T10:12:46;0.10;99.90
69189;DHT22;56302;52.322;5.926;2024-01-16T10:15:14;0.10;99.90
69189;DHT22;56302;52.322;5.926;2024-01-16T10:17:41;0.10;99.90
69189;DHT22;56302;52.322;5.926;2024-01-16T10:20:09;0.10;99.90
69189;DHT22;56302;52.322;5.926;2024-01-16T10:22:39;0.20;99.90
69189;DHT22;56302;52.322;5.926;2024-01-16T10:27:32;0.20;99.90
69189;DHT22;56302;52.322;5.926;2024-01-16T10:29:58;0.20;99.90
69189;DHT22;56302;52.322;5.926;2024-01-16T10:32:33;0.20;99.90
69189;DHT22;56302;52.322;5.926;2024-01-16T10:35:05;0.30;99.90
69189;DHT22;56302;52.322;5.926;2024-01-16T10:37:45;0.30;99.90
69189;DHT22;56302;52.322;5.926;2024-01-16T10:40:18;0.30;99.90
69189;DHT22;56302;52.322;5.926;2024-01-16T10:43:00;0.30;99.90
69189;DHT22;56302;52.322;5.926;2024-01-16T10:45:26;0.30;99.90
69189;DHT22;56302;52.322;5.926;2024-01-16T10:48:05;0.40;99.90
69189;DHT22;56302;52.322;5.926;2024-01-16T10:50:36;0.40;99.90
69189;DHT22;56302;52.322;5.926;2024-01-16T10:53:04;0.40;99.90
69189;DHT22;56302;52.322;5.926;2024-01-16T10:55:31;0.50;99.90
69189;DHT22;56302;52.322;5.926;2024-01-16T10:58:03;0.40;99.90
69189;DHT22;56302;52.322;5.926;2024-01-16T11:00:33;0.50;99.90
69189;DHT22;56302;52.322;5.926;2024-01-16T11:03:07;0.50;99.90
69189;DHT22;56302;52.322;5.926;2024-01-16T11:05:35;0.50;99.90
69189;DHT22;56302;52.322;5.926;2024-01-16T11:08:01;0.50;99.90
69189;DHT22;56302;52.322;5.926;2024-01-16T11:10:29;0.50;99.90
69189;DHT22;56302;52.322;5.926;2024-01-16T11:12:56;0.60;99.90
69189;DHT22;56302;52.322;5.926;2024-01-16T11:15:25;0.60;99.90
69189;DHT22;56302;52.322;5.926;2024-01-16T11:17:51;0.60;99.90
69189;DHT22;56302;52.322;5.926;2024-01-16T11:20:18;0.60;99.90
69189;DHT22;56302;52.322;5.926;2024-01-16T11:22:44;0.60;99.90
69189;DHT22;56302;52.322;5.926;2024-01-16T11:25:12;0.70;99.90
69189;DHT22;56302;52.322;5.926;2024-01-16T11:27:39;0.70;99.90
69189;DHT22;56302;52.322;5.926;2024-01-16T11:30:07;0.70;99.90
69189;DHT22;56302;52.322;5.926;2024-01-16T11:32:34;0.80;99.90
69189;DHT22;56302;52.322;5.926;2024-01-16T11:35:01;0.80;99.70
69189;DHT22;56302;52.322;5.926;2024-01-16T11:37:36;0.80;99.30
69189;DHT22;56302;52.322;5.926;2024-01-16T11:40:24;0.80;99.00
69189;DHT22;56302;52.322;5.926;2024-01-16T11:42:52;0.90;98.60
69189;DHT22;56302;52.322;5.926;2024-01-16T11:50:36;1.00;98.20
69189;DHT22;56302;52.322;5.926;2024-01-16T11:53:03;1.00;97.90
69189;DHT22;56302;52.322;5.926;2024-01-16T11:55:34;1.00;97.80
69189;DHT22;56302;52.322;5.926;2024-01-16T12:01:05;1.10;97.20
69189;DHT22;56302;52.322;5.926;2024-01-16T12:03:32;1.10;96.40
69189;DHT22;56302;52.322;5.926;2024-01-16T12:05:58;1.10;96.30
69189;DHT22;56302;52.322;5.926;2024-01-16T12:08:24;1.20;96.00
69189;DHT22;56302;52.322;5.926;2024-01-16T12:10:50;1.20;95.00
69189;DHT22;56302;52.322;5.926;2024-01-16T12:13:16;1.20;93.70
69189;DHT22;56302;52.322;5.926;2024-01-16T12:15:42;1.20;93.10
69189;DHT22;56302;52.322;5.926;2024-01-16T12:18:08;1.20;92.10
69189;DHT22;56302;52.322;5.926;2024-01-16T12:20:36;1.20;92.20
69189;DHT22;56302;52.322;5.926;2024-01-16T12:23:02;1.20;92.30
69189;DHT22;56302;52.322;5.926;2024-01-16T12:25:30;1.30;92.30
69189;DHT22;56302;52.322;5.926;2024-01-16T12:28:09;1.30;92.50
69189;DHT22;56302;52.322;5.926;2024-01-16T12:30:49;1.30;92.00
69189;DHT22;56302;52.322;5.926;2024-01-16T12:33:14;1.30;91.80
69189;DHT22;56302;52.322;5.926;2024-01-16T12:35:43;1.30;91.20
69189;DHT22;56302;52.322;5.926;2024-01-16T12:38:11;1.40;90.50
69189;DHT22;56302;52.322;5.926;2024-01-16T12:40:40;1.50;90.80
69189;DHT22;56302;52.322;5.926;2024-01-16T12:43:07;1.60;91.20
69189;DHT22;56302;52.322;5.926;2024-01-16T12:45:34;1.60;90.50
69189;DHT22;56302;52.322;5.926;2024-01-16T12:48:01;1.60;90.10
69189;DHT22;56302;52.322;5.926;2024-01-16T12:50:29;1.60;88.90
69189;DHT22;56302;52.322;5.926;2024-01-16T12:53:08;1.60;89.30
69189;DHT22;56302;52.322;5.926;2024-01-16T12:55:36;1.60;89.90
69189;DHT22;56302;52.322;5.926;2024-01-16T12:58:22;1.70;90.20
69189;DHT22;56302;52.322;5.926;2024-01-16T13:00:52;1.70;89.50
69189;DHT22;56302;52.322;5.926;2024-01-16T13:03:22;1.70;89.20
69189;DHT22;56302;52.322;5.926;2024-01-16T13:06:00;1.70;88.50
69189;DHT22;56302;52.322;5.926;2024-01-16T13:08:27;1.70;88.70
69189;DHT22;56302;52.322;5.926;2024-01-16T13:11:03;1.70;89.20
69189;DHT22;56302;52.322;5.926;2024-01-16T13:13:30;1.70;88.70
69189;DHT22;56302;52.322;5.926;2024-01-16T13:15:56;1.70;89.40
69189;DHT22;56302;52.322;5.926;2024-01-16T13:18:27;1.70;89.50
69189;DHT22;56302;52.322;5.926;2024-01-16T13:20:54;1.60;89.60
69189;DHT22;56302;52.322;5.926;2024-01-16T13:23:20;1.60;89.80
69189;DHT22;56302;52.322;5.926;2024-01-16T13:25:47;1.50;89.50
69189;DHT22;56302;52.322;5.926;2024-01-16T13:28:14;1.50;89.90
69189;DHT22;56302;52.322;5.926;2024-01-16T13:30:41;1.50;90.20
69189;DHT22;56302;52.322;5.926;2024-01-16T13:33:07;1.50;90.40
69189;DHT22;56302;52.322;5.926;2024-01-16T13:35:39;1.50;89.80
69189;DHT22;56302;52.322;5.926;2024-01-16T13:38:06;1.50;89.90
69189;DHT22;56302;52.322;5.926;2024-01-16T13:40:32;1.50;89.70
69189;DHT22;56302;52.322;5.926;2024-01-16T13:42:58;1.50;89.80
69189;DHT22;56302;52.322;5.926;2024-01-16T13:45:24;1.50;90.20
69189;DHT22;56302;52.322;5.926;2024-01-16T13:47:50;1.50;90.20
69189;DHT22;56302;52.322;5.926;2024-01-16T13:50:15;1.50;90.10
69189;DHT22;56302;52.322;5.926;2024-01-16T13:52:43;1.50;89.40
69189;DHT22;56302;52.322;5.926;2024-01-16T13:55:09;1.40;89.30
69189;DHT22;56302;52.322;5.926;2024-01-16T13:57:35;1.40;89.30
69189;DHT22;56302;52.322;5.926;2024-01-16T14:00:06;1.40;89.30
69189;DHT22;56302;52.322;5.926;2024-01-16T14:02:32;1.40;89.30
69189;DHT22;56302;52.322;5.926;2024-01-16T14:05:00;1.40;88.90
69189;DHT22;56302;52.322;5.926;2024-01-16T14:07:26;1.40;89.00
69189;DHT22;56302;52.322;5.926;2024-01-16T14:09:51;1.30;89.20
69189;DHT22;56302;52.322;5.926;2024-01-16T14:12:17;1.40;89.30
69189;DHT22;56302;52.322;5.926;2024-01-16T14:14:44;1.30;89.50
69189;DHT22;56302;52.322;5.926;2024-01-16T14:17:11;1.30;89.70
69189;DHT22;56302;52.322;5.926;2024-01-16T14:19:37;1.20;90.30
69189;DHT22;56302;52.322;5.926;2024-01-16T14:22:03;1.20;90.50
69189;DHT22;56302;52.322;5.926;2024-01-16T14:24:29;1.20;90.90
69189;DHT22;56302;52.322;5.926;2024-01-16T14:26:55;1.20;91.00
69189;DHT22;56302;52.322;5.926;2024-01-16T14:29:23;1.10;91.40
69189;DHT22;56302;52.322;5.926;2024-01-16T14:31:49;1.10;91.50
69189;DHT22;56302;52.322;5.926;2024-01-16T14:34:15;1.10;91.50
69189;DHT22;56302;52.322;5.926;2024-01-16T14:36:41;1.10;91.30
69189;DHT22;56302;52.322;5.926;2024-01-16T14:39:07;1.10;91.40
69189;DHT22;56302;52.322;5.926;2024-01-16T14:41:41;1.10;91.30
69189;DHT22;56302;52.322;5.926;2024-01-16T14:44:09;1.00;91.20
69189;DHT22;56302;52.322;5.926;2024-01-16T14:46:35;1.00;91.10
69189;DHT22;56302;52.322;5.926;2024-01-16T14:49:01;1.00;91.00
69189;DHT22;56302;52.322;5.926;2024-01-16T14:51:27;1.00;91.10
69189;DHT22;56302;52.322;5.926;2024-01-16T14:53:53;1.00;90.90
69189;DHT22;56302;52.322;5.926;2024-01-16T14:56:19;1.00;91.00
69189;DHT22;56302;52.322;5.926;2024-01-16T14:58:45;1.00;91.00
69189;DHT22;56302;52.322;5.926;2024-01-16T15:01:11;1.00;91.00
69189;DHT22;56302;52.322;5.926;2024-01-16T15:03:37;0.90;91.00
69189;DHT22;56302;52.322;5.926;2024-01-16T15:06:02;0.90;91.10
69189;DHT22;56302;52.322;5.926;2024-01-16T15:08:30;0.80;91.10
69189;DHT22;56302;52.322;5.926;2024-01-16T15:10:57;0.80;91.30
69189;DHT22;56302;52.322;5.926;2024-01-16T15:13:25;0.70;91.30
69189;DHT22;56302;52.322;5.926;2024-01-16T15:15:51;0.70;91.60
69189;DHT22;56302;52.322;5.926;2024-01-16T15:18:22;0.70;91.80
69189;DHT22;56302;52.322;5.926;2024-01-16T15:20:52;0.60;92.00
69189;DHT22;56302;52.322;5.926;2024-01-16T15:23:18;0.50;92.30
69189;DHT22;56302;52.322;5.926;2024-01-16T15:25:43;0.50;92.40
69189;DHT22;56302;52.322;5.926;2024-01-16T15:28:09;0.40;92.50
69189;DHT22;56302;52.322;5.926;2024-01-16T15:30:35;0.40;92.70
69189;DHT22;56302;52.322;5.926;2024-01-16T15:33:04;0.30;92.80
69189;DHT22;56302;52.322;5.926;2024-01-16T15:35:31;0.20;92.70
69189;DHT22;56302;52.322;5.926;2024-01-16T15:37:57;0.20;92.70
69189;DHT22;56302;52.322;5.926;2024-01-16T15:40:23;0.10;93.00
69189;DHT22;56302;52.322;5.926;2024-01-16T15:42:50;0.10;93.30
69189;DHT22;56302;52.322;5.926;2024-01-16T15:45:16;0.10;93.50
69189;DHT22;56302;52.322;5.926;2024-01-16T15:47:41;0.00;93.50